Aviation Digital Data Service (ADDS)

Output produced by METARs form (0008 UTC 02 April 2015)
found at http://aviationweather.gov/adds/metars/
 
KART 012341Z 0200/0224 25005KT P6SM FEW200 
     FM020500 16004KT P6SM BKN110 
     FM020900 16005KT P6SM BKN035 
     FM021100 16007KT P6SM OVC050 
     FM021500 22015G22KT P6SM FEW250 
     FM022300 18018KT P6SM VCSH BKN080